Skip to main content Skip to accessibility
This website is not compatible with your web browser. You should install a newer browser. If you live in Jersey and need help upgrading call the States of Jersey web team on 440099.
Homegov.je

L'înformâtion et les sèrvices publyis pouor I'Île dé Jèrri

Local METARs

METAR EGJJ 191820Z 28016KT 9999 FEW021 16/12 Q1023 NOSIG

METAR EGJB 191820Z 27014KT 9999 FEW018 15/10 Q1023

METAR EGJA 191820Z 27014KT 9999 FEW018 15/11 Q1023

METAR LFRD 191800Z AUTO 33010KT 9999 FEW023 OVC047 17/11 Q1024 NOSIG

METAR LFRC 191800Z AUTO 24011KT CAVOK 16/10 Q1023

 

 

 

​Times are in Greenwich Mean Time (GMT) and not British Summer Time (BST). They will be one hour different during BST.

Back to top
rating button